sensor_id;sensor_type;location;lat;lon;timestamp;P1;durP1;ratioP1;P2;durP2;ratioP2
57057;SDS011;55017;52.848;6.748;2023-03-24T00:00:20;128.60;;;124.15;;
57057;SDS011;55017;52.848;6.748;2023-03-24T00:02:47;130.53;;;125.83;;
57057;SDS011;55017;52.848;6.748;2023-03-24T00:05:14;128.70;;;124.07;;
57057;SDS011;55017;52.848;6.748;2023-03-24T00:07:41;132.80;;;127.90;;
57057;SDS011;55017;52.848;6.748;2023-03-24T00:10:11;130.68;;;125.75;;
57057;SDS011;55017;52.848;6.748;2023-03-24T00:12:37;128.55;;;123.80;;
57057;SDS011;55017;52.848;6.748;2023-03-24T00:15:04;130.10;;;125.32;;
57057;SDS011;55017;52.848;6.748;2023-03-24T00:17:31;125.93;;;121.22;;
57057;SDS011;55017;52.848;6.748;2023-03-24T00:22:25;129.25;;;124.72;;
57057;SDS011;55017;52.848;6.748;2023-03-24T00:24:52;129.43;;;124.60;;
57057;SDS011;55017;52.848;6.748;2023-03-24T00:27:18;132.70;;;127.65;;
57057;SDS011;55017;52.848;6.748;2023-03-24T00:29:45;134.00;;;129.20;;
57057;SDS011;55017;52.848;6.748;2023-03-24T00:32:11;133.25;;;128.52;;
57057;SDS011;55017;52.848;6.748;2023-03-24T00:34:37;130.48;;;125.55;;
57057;SDS011;55017;52.848;6.748;2023-03-24T00:37:07;128.98;;;124.15;;
57057;SDS011;55017;52.848;6.748;2023-03-24T00:39:33;132.75;;;128.15;;
57057;SDS011;55017;52.848;6.748;2023-03-24T00:42:00;131.10;;;126.22;;
57057;SDS011;55017;52.848;6.748;2023-03-24T00:44:27;126.75;;;122.45;;
57057;SDS011;55017;52.848;6.748;2023-03-24T00:46:53;132.30;;;127.53;;
57057;SDS011;55017;52.848;6.748;2023-03-24T00:49:20;132.68;;;127.97;;
57057;SDS011;55017;52.848;6.748;2023-03-24T00:52:06;132.88;;;128.13;;
57057;SDS011;55017;52.848;6.748;2023-03-24T00:54:34;130.52;;;126.00;;
57057;SDS011;55017;52.848;6.748;2023-03-24T00:57:00;134.82;;;129.77;;
57057;SDS011;55017;52.848;6.748;2023-03-24T00:59:27;129.20;;;124.50;;
57057;SDS011;55017;52.848;6.748;2023-03-24T01:01:53;132.23;;;127.53;;
57057;SDS011;55017;52.848;6.748;2023-03-24T01:04:20;130.48;;;126.00;;
57057;SDS011;55017;52.848;6.748;2023-03-24T01:06:50;131.30;;;126.78;;
57057;SDS011;55017;52.848;6.748;2023-03-24T01:09:16;131.32;;;126.53;;
57057;SDS011;55017;52.848;6.748;2023-03-24T01:11:45;128.02;;;123.38;;
57057;SDS011;55017;52.848;6.748;2023-03-24T01:14:11;134.93;;;130.05;;
57057;SDS011;55017;52.848;6.748;2023-03-24T01:16:38;130.70;;;125.93;;
57057;SDS011;55017;52.848;6.748;2023-03-24T01:19:05;132.40;;;127.60;;
57057;SDS011;55017;52.848;6.748;2023-03-24T01:21:32;128.52;;;123.90;;
57057;SDS011;55017;52.848;6.748;2023-03-24T01:23:59;133.65;;;129.02;;
57057;SDS011;55017;52.848;6.748;2023-03-24T01:26:26;124.78;;;120.30;;
57057;SDS011;55017;52.848;6.748;2023-03-24T01:28:52;132.25;;;127.65;;
57057;SDS011;55017;52.848;6.748;2023-03-24T01:31:19;129.82;;;125.35;;
57057;SDS011;55017;52.848;6.748;2023-03-24T01:33:44;131.07;;;126.57;;
57057;SDS011;55017;52.848;6.748;2023-03-24T01:36:10;135.48;;;130.80;;
57057;SDS011;55017;52.848;6.748;2023-03-24T01:38:37;126.28;;;121.95;;
57057;SDS011;55017;52.848;6.748;2023-03-24T01:41:03;131.50;;;126.88;;
57057;SDS011;55017;52.848;6.748;2023-03-24T01:43:30;131.10;;;126.38;;
57057;SDS011;55017;52.848;6.748;2023-03-24T01:46:14;132.07;;;127.38;;
57057;SDS011;55017;52.848;6.748;2023-03-24T01:48:49;127.32;;;122.82;;
57057;SDS011;55017;52.848;6.748;2023-03-24T01:51:27;131.07;;;126.53;;
57057;SDS011;55017;52.848;6.748;2023-03-24T01:54:03;128.90;;;124.38;;
57057;SDS011;55017;52.848;6.748;2023-03-24T01:56:31;129.45;;;125.05;;
57057;SDS011;55017;52.848;6.748;2023-03-24T01:58:59;129.38;;;124.90;;
57057;SDS011;55017;52.848;6.748;2023-03-24T02:01:27;135.25;;;130.57;;
57057;SDS011;55017;52.848;6.748;2023-03-24T02:06:21;127.10;;;122.60;;
57057;SDS011;55017;52.848;6.748;2023-03-24T02:08:57;131.93;;;127.18;;
57057;SDS011;55017;52.848;6.748;2023-03-24T02:11:24;131.45;;;126.85;;
57057;SDS011;55017;52.848;6.748;2023-03-24T02:13:51;133.75;;;129.15;;
57057;SDS011;55017;52.848;6.748;2023-03-24T02:23:55;131.70;;;127.07;;
57057;SDS011;55017;52.848;6.748;2023-03-24T02:32:03;133.82;;;129.35;;
57057;SDS011;55017;52.848;6.748;2023-03-24T02:47:26;133.07;;;128.43;;
57057;SDS011;55017;52.848;6.748;2023-03-24T02:49:57;131.18;;;126.78;;
57057;SDS011;55017;52.848;6.748;2023-03-24T02:52:32;132.40;;;127.72;;
57057;SDS011;55017;52.848;6.748;2023-03-24T02:55:01;134.65;;;130.07;;
57057;SDS011;55017;52.848;6.748;2023-03-24T03:00:15;132.57;;;127.90;;
57057;SDS011;55017;52.848;6.748;2023-03-24T03:02:52;128.95;;;124.45;;
57057;SDS011;55017;52.848;6.748;2023-03-24T03:05:55;127.82;;;123.32;;
57057;SDS011;55017;52.848;6.748;2023-03-24T03:08:13;128.93;;;124.45;;
57057;SDS011;55017;52.848;6.748;2023-03-24T03:10:42;131.40;;;126.88;;
57057;SDS011;55017;52.848;6.748;2023-03-24T03:13:11;130.63;;;126.22;;
57057;SDS011;55017;52.848;6.748;2023-03-24T03:15:43;134.93;;;130.25;;
57057;SDS011;55017;52.848;6.748;2023-03-24T03:18:13;131.32;;;126.93;;
57057;SDS011;55017;52.848;6.748;2023-03-24T03:20:43;131.25;;;126.65;;
57057;SDS011;55017;52.848;6.748;2023-03-24T03:23:24;132.63;;;128.13;;
57057;SDS011;55017;52.848;6.748;2023-03-24T03:25:53;129.00;;;124.55;;
57057;SDS011;55017;52.848;6.748;2023-03-24T03:28:21;127.45;;;123.18;;
57057;SDS011;55017;52.848;6.748;2023-03-24T03:30:53;128.98;;;124.68;;
57057;SDS011;55017;52.848;6.748;2023-03-24T03:33:22;131.40;;;127.10;;
57057;SDS011;55017;52.848;6.748;2023-03-24T03:38:21;129.15;;;124.85;;
57057;SDS011;55017;52.848;6.748;2023-03-24T03:40:52;132.68;;;128.27;;
57057;SDS011;55017;52.848;6.748;2023-03-24T03:43:20;130.32;;;125.93;;
57057;SDS011;55017;52.848;6.748;2023-03-24T03:45:46;132.52;;;128.00;;
57057;SDS011;55017;52.848;6.748;2023-03-24T03:48:12;134.32;;;129.82;;
57057;SDS011;55017;52.848;6.748;2023-03-24T03:50:38;132.68;;;128.27;;
57057;SDS011;55017;52.848;6.748;2023-03-24T03:53:05;129.43;;;125.13;;
57057;SDS011;55017;52.848;6.748;2023-03-24T03:55:31;129.23;;;125.03;;
57057;SDS011;55017;52.848;6.748;2023-03-24T03:57:59;134.15;;;129.68;;
57057;SDS011;55017;52.848;6.748;2023-03-24T04:00:25;132.65;;;128.23;;
57057;SDS011;55017;52.848;6.748;2023-03-24T04:05:43;129.35;;;125.05;;
57057;SDS011;55017;52.848;6.748;2023-03-24T04:08:25;130.95;;;126.55;;
57057;SDS011;55017;52.848;6.748;2023-03-24T04:21:52;128.68;;;124.38;;
57057;SDS011;55017;52.848;6.748;2023-03-24T04:32:20;132.20;;;127.70;;
57057;SDS011;55017;52.848;6.748;2023-03-24T04:34:55;129.10;;;124.85;;
57057;SDS011;55017;52.848;6.748;2023-03-24T04:37:29;132.32;;;127.60;;
57057;SDS011;55017;52.848;6.748;2023-03-24T04:39:56;130.25;;;125.40;;
57057;SDS011;55017;52.848;6.748;2023-03-24T04:42:25;129.50;;;124.90;;
57057;SDS011;55017;52.848;6.748;2023-03-24T04:44:54;128.13;;;123.63;;
57057;SDS011;55017;52.848;6.748;2023-03-24T04:47:23;127.60;;;122.88;;
57057;SDS011;55017;52.848;6.748;2023-03-24T04:49:50;131.10;;;126.28;;
57057;SDS011;55017;52.848;6.748;2023-03-24T04:52:16;132.20;;;127.47;;
57057;SDS011;55017;52.848;6.748;2023-03-24T04:54:42;131.98;;;127.18;;
57057;SDS011;55017;52.848;6.748;2023-03-24T04:57:08;132.98;;;128.27;;
57057;SDS011;55017;52.848;6.748;2023-03-24T04:59:34;134.00;;;129.05;;
57057;SDS011;55017;52.848;6.748;2023-03-24T05:02:00;132.98;;;128.23;;
57057;SDS011;55017;52.848;6.748;2023-03-24T05:04:27;132.07;;;127.35;;
57057;SDS011;55017;52.848;6.748;2023-03-24T05:06:53;130.38;;;125.50;;
57057;SDS011;55017;52.848;6.748;2023-03-24T05:09:20;135.05;;;130.15;;
57057;SDS011;55017;52.848;6.748;2023-03-24T05:11:47;128.55;;;124.00;;
57057;SDS011;55017;52.848;6.748;2023-03-24T05:14:13;128.40;;;123.57;;
57057;SDS011;55017;52.848;6.748;2023-03-24T05:16:39;134.10;;;129.35;;
57057;SDS011;55017;52.848;6.748;2023-03-24T05:19:05;129.13;;;124.53;;
57057;SDS011;55017;52.848;6.748;2023-03-24T05:21:31;129.18;;;124.60;;
57057;SDS011;55017;52.848;6.748;2023-03-24T05:23:58;131.38;;;126.28;;
57057;SDS011;55017;52.848;6.748;2023-03-24T05:26:24;133.57;;;128.50;;
57057;SDS011;55017;52.848;6.748;2023-03-24T05:28:53;133.00;;;128.13;;
57057;SDS011;55017;52.848;6.748;2023-03-24T05:31:19;133.52;;;128.73;;
57057;SDS011;55017;52.848;6.748;2023-03-24T05:33:45;135.40;;;130.48;;
57057;SDS011;55017;52.848;6.748;2023-03-24T05:36:12;129.80;;;125.18;;
57057;SDS011;55017;52.848;6.748;2023-03-24T05:38:38;132.40;;;127.55;;
57057;SDS011;55017;52.848;6.748;2023-03-24T05:41:04;133.43;;;128.57;;
57057;SDS011;55017;52.848;6.748;2023-03-24T05:43:31;132.63;;;127.88;;
57057;SDS011;55017;52.848;6.748;2023-03-24T05:45:57;133.30;;;128.35;;
57057;SDS011;55017;52.848;6.748;2023-03-24T05:50:52;129.80;;;124.97;;
57057;SDS011;55017;52.848;6.748;2023-03-24T05:53:18;129.40;;;124.63;;
57057;SDS011;55017;52.848;6.748;2023-03-24T05:55:44;129.30;;;124.70;;
57057;SDS011;55017;52.848;6.748;2023-03-24T05:58:10;130.50;;;125.50;;
57057;SDS011;55017;52.848;6.748;2023-03-24T06:00:37;132.20;;;127.25;;
57057;SDS011;55017;52.848;6.748;2023-03-24T06:03:03;129.25;;;124.47;;
57057;SDS011;55017;52.848;6.748;2023-03-24T06:05:29;129.75;;;125.13;;
57057;SDS011;55017;52.848;6.748;2023-03-24T06:07:56;132.57;;;127.55;;
57057;SDS011;55017;52.848;6.748;2023-03-24T06:10:23;131.07;;;126.05;;
57057;SDS011;55017;52.848;6.748;2023-03-24T06:12:50;126.97;;;122.47;;
57057;SDS011;55017;52.848;6.748;2023-03-24T06:15:16;128.65;;;123.93;;
57057;SDS011;55017;52.848;6.748;2023-03-24T06:17:43;128.40;;;123.65;;
57057;SDS011;55017;52.848;6.748;2023-03-24T06:20:10;131.45;;;126.43;;
57057;SDS011;55017;52.848;6.748;2023-03-24T06:22:40;131.60;;;126.97;;
57057;SDS011;55017;52.848;6.748;2023-03-24T06:25:06;131.82;;;127.18;;
57057;SDS011;55017;52.848;6.748;2023-03-24T06:27:33;127.93;;;123.50;;
57057;SDS011;55017;52.848;6.748;2023-03-24T06:30:00;133.63;;;128.65;;
57057;SDS011;55017;52.848;6.748;2023-03-24T06:32:26;129.88;;;124.93;;
57057;SDS011;55017;52.848;6.748;2023-03-24T06:34:53;129.65;;;124.72;;
57057;SDS011;55017;52.848;6.748;2023-03-24T06:37:22;126.97;;;122.50;;
57057;SDS011;55017;52.848;6.748;2023-03-24T06:39:48;129.85;;;125.03;;
57057;SDS011;55017;52.848;6.748;2023-03-24T06:42:15;126.65;;;122.22;;
57057;SDS011;55017;52.848;6.748;2023-03-24T06:44:42;132.38;;;127.18;;
57057;SDS011;55017;52.848;6.748;2023-03-24T06:47:08;128.98;;;124.47;;
57057;SDS011;55017;52.848;6.748;2023-03-24T06:49:34;128.68;;;124.03;;
57057;SDS011;55017;52.848;6.748;2023-03-24T06:52:01;125.38;;;120.70;;
57057;SDS011;55017;52.848;6.748;2023-03-24T06:54:27;130.18;;;125.13;;
57057;SDS011;55017;52.848;6.748;2023-03-24T06:56:53;127.90;;;122.95;;
57057;SDS011;55017;52.848;6.748;2023-03-24T06:59:20;132.88;;;128.13;;
57057;SDS011;55017;52.848;6.748;2023-03-24T07:01:48;128.40;;;123.53;;
57057;SDS011;55017;52.848;6.748;2023-03-24T07:04:14;127.97;;;123.43;;
57057;SDS011;55017;52.848;6.748;2023-03-24T07:06:40;128.30;;;123.53;;
57057;SDS011;55017;52.848;6.748;2023-03-24T07:09:06;129.43;;;124.47;;
57057;SDS011;55017;52.848;6.748;2023-03-24T07:11:33;129.77;;;125.07;;
57057;SDS011;55017;52.848;6.748;2023-03-24T07:13:59;130.95;;;125.95;;
57057;SDS011;55017;52.848;6.748;2023-03-24T07:16:25;128.35;;;123.15;;
57057;SDS011;55017;52.848;6.748;2023-03-24T07:18:51;131.52;;;126.60;;
57057;SDS011;55017;52.848;6.748;2023-03-24T07:21:17;130.00;;;124.90;;
57057;SDS011;55017;52.848;6.748;2023-03-24T07:23:43;132.90;;;127.75;;
57057;SDS011;55017;52.848;6.748;2023-03-24T07:26:09;126.93;;;121.85;;
57057;SDS011;55017;52.848;6.748;2023-03-24T07:28:35;130.27;;;124.90;;
57057;SDS011;55017;52.848;6.748;2023-03-24T07:31:02;127.00;;;122.45;;
57057;SDS011;55017;52.848;6.748;2023-03-24T07:33:28;128.07;;;122.97;;
57057;SDS011;55017;52.848;6.748;2023-03-24T07:35:55;132.20;;;126.97;;
57057;SDS011;55017;52.848;6.748;2023-03-24T07:38:21;131.18;;;125.68;;
57057;SDS011;55017;52.848;6.748;2023-03-24T07:40:47;131.13;;;126.07;;
57057;SDS011;55017;52.848;6.748;2023-03-24T07:43:13;135.20;;;129.30;;
57057;SDS011;55017;52.848;6.748;2023-03-24T07:45:39;133.90;;;128.57;;
57057;SDS011;55017;52.848;6.748;2023-03-24T07:48:06;130.93;;;125.57;;
57057;SDS011;55017;52.848;6.748;2023-03-24T07:50:32;132.35;;;126.70;;
57057;SDS011;55017;52.848;6.748;2023-03-24T07:52:58;134.68;;;128.75;;
57057;SDS011;55017;52.848;6.748;2023-03-24T07:55:24;132.45;;;127.45;;
57057;SDS011;55017;52.848;6.748;2023-03-24T07:57:51;132.38;;;126.68;;
57057;SDS011;55017;52.848;6.748;2023-03-24T08:00:17;131.65;;;126.20;;
57057;SDS011;55017;52.848;6.748;2023-03-24T08:02:45;131.82;;;126.53;;
57057;SDS011;55017;52.848;6.748;2023-03-24T08:05:12;128.95;;;123.88;;
57057;SDS011;55017;52.848;6.748;2023-03-24T08:07:46;135.23;;;129.38;;
57057;SDS011;55017;52.848;6.748;2023-03-24T08:10:20;132.75;;;127.20;;
57057;SDS011;55017;52.848;6.748;2023-03-24T08:12:47;132.48;;;126.72;;
57057;SDS011;55017;52.848;6.748;2023-03-24T08:15:13;130.20;;;124.55;;
57057;SDS011;55017;52.848;6.748;2023-03-24T08:17:39;134.50;;;128.77;;
57057;SDS011;55017;52.848;6.748;2023-03-24T08:20:07;138.38;;;132.15;;
57057;SDS011;55017;52.848;6.748;2023-03-24T08:22:35;132.50;;;126.90;;
57057;SDS011;55017;52.848;6.748;2023-03-24T08:25:03;134.25;;;128.65;;
57057;SDS011;55017;52.848;6.748;2023-03-24T08:27:29;134.98;;;129.63;;
57057;SDS011;55017;52.848;6.748;2023-03-24T08:29:55;134.38;;;128.50;;
57057;SDS011;55017;52.848;6.748;2023-03-24T08:32:21;133.65;;;127.63;;
57057;SDS011;55017;52.848;6.748;2023-03-24T08:34:47;132.18;;;126.50;;
57057;SDS011;55017;52.848;6.748;2023-03-24T08:37:13;130.95;;;125.40;;
57057;SDS011;55017;52.848;6.748;2023-03-24T08:39:39;131.88;;;126.60;;
57057;SDS011;55017;52.848;6.748;2023-03-24T08:42:05;131.77;;;126.15;;
57057;SDS011;55017;52.848;6.748;2023-03-24T08:44:31;133.77;;;128.48;;
57057;SDS011;55017;52.848;6.748;2023-03-24T08:46:59;132.70;;;126.78;;
57057;SDS011;55017;52.848;6.748;2023-03-24T08:49:25;132.55;;;127.45;;
57057;SDS011;55017;52.848;6.748;2023-03-24T08:51:51;133.73;;;128.60;;
57057;SDS011;55017;52.848;6.748;2023-03-24T08:54:17;133.27;;;127.90;;
57057;SDS011;55017;52.848;6.748;2023-03-24T08:56:45;129.52;;;124.55;;
57057;SDS011;55017;52.848;6.748;2023-03-24T08:59:11;131.55;;;126.30;;
57057;SDS011;55017;52.848;6.748;2023-03-24T09:01:37;132.90;;;127.85;;
57057;SDS011;55017;52.848;6.748;2023-03-24T09:04:03;127.45;;;122.28;;
57057;SDS011;55017;52.848;6.748;2023-03-24T09:06:30;135.05;;;129.35;;
57057;SDS011;55017;52.848;6.748;2023-03-24T09:08:56;129.52;;;124.32;;
57057;SDS011;55017;52.848;6.748;2023-03-24T09:11:22;128.68;;;123.68;;
57057;SDS011;55017;52.848;6.748;2023-03-24T09:13:49;126.05;;;121.03;;
57057;SDS011;55017;52.848;6.748;2023-03-24T09:16:15;126.88;;;121.82;;
57057;SDS011;55017;52.848;6.748;2023-03-24T09:18:42;128.70;;;123.63;;
57057;SDS011;55017;52.848;6.748;2023-03-24T09:21:08;127.38;;;122.38;;
57057;SDS011;55017;52.848;6.748;2023-03-24T09:23:34;129.32;;;123.60;;
57057;SDS011;55017;52.848;6.748;2023-03-24T09:26:00;131.43;;;126.03;;
57057;SDS011;55017;52.848;6.748;2023-03-24T09:28:26;128.98;;;124.18;;
57057;SDS011;55017;52.848;6.748;2023-03-24T09:31:00;128.65;;;123.70;;
57057;SDS011;55017;52.848;6.748;2023-03-24T09:33:26;127.47;;;122.15;;
57057;SDS011;55017;52.848;6.748;2023-03-24T09:35:56;126.22;;;121.07;;
57057;SDS011;55017;52.848;6.748;2023-03-24T09:38:22;125.03;;;120.13;;
57057;SDS011;55017;52.848;6.748;2023-03-24T09:40:50;127.55;;;122.55;;
57057;SDS011;55017;52.848;6.748;2023-03-24T09:43:38;124.75;;;119.90;;
57057;SDS011;55017;52.848;6.748;2023-03-24T09:46:09;122.47;;;117.37;;
57057;SDS011;55017;52.848;6.748;2023-03-24T09:48:54;127.80;;;122.57;;
57057;SDS011;55017;52.848;6.748;2023-03-24T09:51:31;131.37;;;125.80;;
57057;SDS011;55017;52.848;6.748;2023-03-24T09:56:25;127.78;;;122.75;;
57057;SDS011;55017;52.848;6.748;2023-03-24T10:01:19;127.57;;;122.45;;
57057;SDS011;55017;52.848;6.748;2023-03-24T10:03:45;126.13;;;121.10;;
57057;SDS011;55017;52.848;6.748;2023-03-24T10:06:27;129.35;;;123.75;;
57057;SDS011;55017;52.848;6.748;2023-03-24T10:09:21;125.72;;;120.65;;
57057;SDS011;55017;52.848;6.748;2023-03-24T10:16:57;127.88;;;122.75;;
57057;SDS011;55017;52.848;6.748;2023-03-24T10:25:09;126.50;;;121.75;;
57057;SDS011;55017;52.848;6.748;2023-03-24T10:30:18;126.28;;;121.35;;
57057;SDS011;55017;52.848;6.748;2023-03-24T10:32:45;121.65;;;116.90;;
57057;SDS011;55017;52.848;6.748;2023-03-24T10:35:16;124.80;;;120.25;;
57057;SDS011;55017;52.848;6.748;2023-03-24T10:37:43;123.03;;;118.10;;
57057;SDS011;55017;52.848;6.748;2023-03-24T10:40:14;125.88;;;120.75;;
57057;SDS011;55017;52.848;6.748;2023-03-24T10:42:41;126.47;;;121.40;;
57057;SDS011;55017;52.848;6.748;2023-03-24T10:45:13;124.00;;;119.13;;
57057;SDS011;55017;52.848;6.748;2023-03-24T10:47:39;124.18;;;119.53;;
57057;SDS011;55017;52.848;6.748;2023-03-24T10:50:05;124.05;;;119.35;;
57057;SDS011;55017;52.848;6.748;2023-03-24T10:52:39;123.80;;;119.00;;
57057;SDS011;55017;52.848;6.748;2023-03-24T10:55:06;122.40;;;117.80;;
57057;SDS011;55017;52.848;6.748;2023-03-24T10:57:32;125.75;;;121.00;;
57057;SDS011;55017;52.848;6.748;2023-03-24T11:00:06;121.95;;;117.35;;
57057;SDS011;55017;52.848;6.748;2023-03-24T11:02:39;123.55;;;118.63;;
57057;SDS011;55017;52.848;6.748;2023-03-24T11:05:14;124.60;;;119.72;;
57057;SDS011;55017;52.848;6.748;2023-03-24T11:07:41;126.30;;;121.32;;
57057;SDS011;55017;52.848;6.748;2023-03-24T11:12:38;123.80;;;119.00;;
57057;SDS011;55017;52.848;6.748;2023-03-24T11:15:19;123.10;;;118.53;;
57057;SDS011;55017;52.848;6.748;2023-03-24T11:17:45;123.65;;;118.80;;
57057;SDS011;55017;52.848;6.748;2023-03-24T11:20:19;122.55;;;118.13;;
57057;SDS011;55017;52.848;6.748;2023-03-24T11:23:05;123.05;;;118.30;;
57057;SDS011;55017;52.848;6.748;2023-03-24T11:25:35;123.95;;;119.45;;
57057;SDS011;55017;52.848;6.748;2023-03-24T11:28:14;122.40;;;117.60;;
57057;SDS011;55017;52.848;6.748;2023-03-24T11:30:48;122.32;;;117.47;;
57057;SDS011;55017;52.848;6.748;2023-03-24T11:35:47;123.25;;;118.60;;
57057;SDS011;55017;52.848;6.748;2023-03-24T11:38:17;121.50;;;116.70;;
57057;SDS011;55017;52.848;6.748;2023-03-24T11:40:53;120.00;;;115.57;;
57057;SDS011;55017;52.848;6.748;2023-03-24T11:43:22;121.72;;;117.10;;
57057;SDS011;55017;52.848;6.748;2023-03-24T11:46:08;120.45;;;115.80;;
57057;SDS011;55017;52.848;6.748;2023-03-24T11:48:42;119.05;;;114.70;;
57057;SDS011;55017;52.848;6.748;2023-03-24T11:51:22;121.60;;;117.20;;
57057;SDS011;55017;52.848;6.748;2023-03-24T11:53:50;125.15;;;120.40;;
57057;SDS011;55017;52.848;6.748;2023-03-24T11:56:24;122.00;;;117.45;;
57057;SDS011;55017;52.848;6.748;2023-03-24T11:58:55;122.43;;;117.85;;
57057;SDS011;55017;52.848;6.748;2023-03-24T12:01:31;121.32;;;116.97;;
57057;SDS011;55017;52.848;6.748;2023-03-24T12:09:23;124.93;;;120.30;;
57057;SDS011;55017;52.848;6.748;2023-03-24T12:14:26;121.60;;;116.90;;
57057;SDS011;55017;52.848;6.748;2023-03-24T12:40:27;126.38;;;121.65;;
57057;SDS011;55017;52.848;6.748;2023-03-24T12:43:01;125.32;;;120.45;;
57057;SDS011;55017;52.848;6.748;2023-03-24T12:45:34;123.30;;;118.80;;
57057;SDS011;55017;52.848;6.748;2023-03-24T12:55:58;112.88;;;108.63;;
57057;SDS011;55017;52.848;6.748;2023-03-24T12:58:29;109.20;;;105.03;;
57057;SDS011;55017;52.848;6.748;2023-03-24T13:01:04;111.90;;;107.80;;
57057;SDS011;55017;52.848;6.748;2023-03-24T13:06:15;111.70;;;107.55;;
57057;SDS011;55017;52.848;6.748;2023-03-24T13:08:43;111.32;;;107.28;;
57057;SDS011;55017;52.848;6.748;2023-03-24T13:11:13;112.82;;;108.38;;
57057;SDS011;55017;52.848;6.748;2023-03-24T13:13:43;107.97;;;103.93;;
57057;SDS011;55017;52.848;6.748;2023-03-24T13:16:13;110.03;;;105.97;;
57057;SDS011;55017;52.848;6.748;2023-03-24T13:18:42;108.53;;;104.43;;
57057;SDS011;55017;52.848;6.748;2023-03-24T13:21:21;108.10;;;104.03;;
57057;SDS011;55017;52.848;6.748;2023-03-24T13:31:38;106.70;;;102.63;;
57057;SDS011;55017;52.848;6.748;2023-03-24T13:34:11;106.00;;;102.03;;
57057;SDS011;55017;52.848;6.748;2023-03-24T13:36:43;105.47;;;101.38;;
57057;SDS011;55017;52.848;6.748;2023-03-24T13:39:13;105.95;;;101.75;;
57057;SDS011;55017;52.848;6.748;2023-03-24T13:41:40;106.25;;;102.28;;
57057;SDS011;55017;52.848;6.748;2023-03-24T13:44:17;107.60;;;103.70;;
57057;SDS011;55017;52.848;6.748;2023-03-24T13:46:46;109.85;;;105.68;;
57057;SDS011;55017;52.848;6.748;2023-03-24T13:49:24;108.88;;;104.60;;
57057;SDS011;55017;52.848;6.748;2023-03-24T13:51:50;109.82;;;105.93;;
57057;SDS011;55017;52.848;6.748;2023-03-24T13:56:52;111.07;;;106.88;;
57057;SDS011;55017;52.848;6.748;2023-03-24T13:59:30;112.00;;;107.57;;
57057;SDS011;55017;52.848;6.748;2023-03-24T14:04:46;112.75;;;108.65;;
57057;SDS011;55017;52.848;6.748;2023-03-24T14:15:20;117.38;;;112.93;;
57057;SDS011;55017;52.848;6.748;2023-03-24T14:17:47;117.80;;;113.28;;
57057;SDS011;55017;52.848;6.748;2023-03-24T14:20:24;115.72;;;111.50;;
57057;SDS011;55017;52.848;6.748;2023-03-24T14:22:50;119.80;;;114.95;;
57057;SDS011;55017;52.848;6.748;2023-03-24T14:25:20;114.75;;;110.57;;
57057;SDS011;55017;52.848;6.748;2023-03-24T14:27:48;118.55;;;114.18;;
57057;SDS011;55017;52.848;6.748;2023-03-24T14:30:19;115.22;;;111.32;;
57057;SDS011;55017;52.848;6.748;2023-03-24T14:32:46;117.15;;;112.90;;
57057;SDS011;55017;52.848;6.748;2023-03-24T14:38:01;118.78;;;114.53;;
57057;SDS011;55017;52.848;6.748;2023-03-24T14:40:32;119.22;;;114.57;;
57057;SDS011;55017;52.848;6.748;2023-03-24T14:45:59;120.95;;;116.57;;
57057;SDS011;55017;52.848;6.748;2023-03-24T14:48:33;119.18;;;114.75;;
57057;SDS011;55017;52.848;6.748;2023-03-24T14:51:02;119.25;;;114.65;;
57057;SDS011;55017;52.848;6.748;2023-03-24T14:53:30;122.30;;;117.82;;
57057;SDS011;55017;52.848;6.748;2023-03-24T14:56:00;119.70;;;115.20;;
57057;SDS011;55017;52.848;6.748;2023-03-24T14:58:30;120.38;;;116.07;;
57057;SDS011;55017;52.848;6.748;2023-03-24T15:01:00;120.72;;;116.15;;
57057;SDS011;55017;52.848;6.748;2023-03-24T15:03:35;123.80;;;119.18;;
57057;SDS011;55017;52.848;6.748;2023-03-24T15:06:14;122.70;;;118.10;;
57057;SDS011;55017;52.848;6.748;2023-03-24T15:09:07;119.10;;;114.80;;
57057;SDS011;55017;52.848;6.748;2023-03-24T15:11:34;122.88;;;118.38;;
57057;SDS011;55017;52.848;6.748;2023-03-24T15:14:01;123.10;;;118.50;;
57057;SDS011;55017;52.848;6.748;2023-03-24T15:16:29;123.22;;;118.85;;
57057;SDS011;55017;52.848;6.748;2023-03-24T15:18:56;126.18;;;121.72;;
57057;SDS011;55017;52.848;6.748;2023-03-24T15:23:57;123.07;;;118.57;;
57057;SDS011;55017;52.848;6.748;2023-03-24T15:26:26;121.40;;;117.18;;
57057;SDS011;55017;52.848;6.748;2023-03-24T15:28:53;120.57;;;116.25;;
57057;SDS011;55017;52.848;6.748;2023-03-24T15:31:21;122.40;;;117.95;;
57057;SDS011;55017;52.848;6.748;2023-03-24T15:33:49;121.20;;;116.60;;
57057;SDS011;55017;52.848;6.748;2023-03-24T15:36:18;118.60;;;114.38;;
57057;SDS011;55017;52.848;6.748;2023-03-24T15:38:45;123.03;;;118.45;;
57057;SDS011;55017;52.848;6.748;2023-03-24T15:41:12;123.60;;;119.13;;
57057;SDS011;55017;52.848;6.748;2023-03-24T15:43:45;120.60;;;116.32;;
57057;SDS011;55017;52.848;6.748;2023-03-24T15:46:22;121.53;;;117.13;;
57057;SDS011;55017;52.848;6.748;2023-03-24T15:48:48;123.25;;;118.68;;
57057;SDS011;55017;52.848;6.748;2023-03-24T15:51:14;120.95;;;116.60;;
57057;SDS011;55017;52.848;6.748;2023-03-24T15:58:51;123.40;;;118.78;;
57057;SDS011;55017;52.848;6.748;2023-03-24T16:01:18;119.55;;;115.53;;
57057;SDS011;55017;52.848;6.748;2023-03-24T16:03:45;121.40;;;116.88;;
57057;SDS011;55017;52.848;6.748;2023-03-24T16:06:20;121.78;;;117.25;;
57057;SDS011;55017;52.848;6.748;2023-03-24T16:08:50;122.82;;;118.20;;
57057;SDS011;55017;52.848;6.748;2023-03-24T16:11:16;119.25;;;114.90;;
57057;SDS011;55017;52.848;6.748;2023-03-24T16:13:43;120.95;;;116.85;;
57057;SDS011;55017;52.848;6.748;2023-03-24T16:18:39;120.88;;;116.88;;
57057;SDS011;55017;52.848;6.748;2023-03-24T16:21:10;119.88;;;115.93;;
57057;SDS011;55017;52.848;6.748;2023-03-24T16:23:38;119.47;;;115.43;;
57057;SDS011;55017;52.848;6.748;2023-03-24T16:26:08;120.70;;;116.75;;
57057;SDS011;55017;52.848;6.748;2023-03-24T16:28:36;123.18;;;118.78;;
57057;SDS011;55017;52.848;6.748;2023-03-24T16:31:03;121.32;;;117.28;;
57057;SDS011;55017;52.848;6.748;2023-03-24T16:33:30;124.38;;;119.72;;
57057;SDS011;55017;52.848;6.748;2023-03-24T16:35:57;120.47;;;116.30;;
57057;SDS011;55017;52.848;6.748;2023-03-24T16:38:24;124.00;;;119.75;;
57057;SDS011;55017;52.848;6.748;2023-03-24T16:40:51;125.53;;;121.20;;
57057;SDS011;55017;52.848;6.748;2023-03-24T16:43:17;122.43;;;118.20;;
57057;SDS011;55017;52.848;6.748;2023-03-24T16:45:44;127.57;;;123.28;;
57057;SDS011;55017;52.848;6.748;2023-03-24T16:48:11;126.07;;;121.68;;